createdAt,value
2023-10-06T04:40:43.939Z,7.12
2023-10-06T04:43:46.860Z,5.87
2023-10-06T04:46:51.630Z,5.70
2023-10-06T04:49:54.543Z,5.55
2023-10-06T04:52:59.785Z,5.95
2023-10-06T04:59:08.315Z,6.55
2023-10-06T05:02:12.792Z,6.55
2023-10-06T05:05:16.242Z,6.30
2023-10-06T05:08:18.855Z,6.80
2023-10-06T05:11:22.286Z,6.62
2023-10-06T05:14:25.988Z,7.40
2023-10-06T05:17:28.603Z,6.05
2023-10-06T05:20:35.046Z,5.78
2023-10-06T05:23:37.637Z,6.28
2023-10-06T05:26:40.199Z,9.35
2023-10-06T05:29:43.199Z,10.48
2023-10-06T05:32:45.826Z,10.65
2023-10-06T05:35:49.555Z,8.38
2023-10-06T05:38:52.074Z,6.93
2023-10-06T05:41:54.751Z,6.28
2023-10-06T05:44:57.239Z,5.65
2023-10-06T05:48:00.302Z,9.07
2023-10-06T05:51:16.725Z,6.25
2023-10-06T05:54:25.509Z,6.32
2023-10-06T05:57:28.225Z,5.82
2023-10-06T06:00:32.133Z,6.12
2023-10-06T06:03:34.941Z,6.32
2023-10-06T06:06:38.916Z,7.32
2023-10-06T06:09:42.447Z,6.93
2023-10-06T06:12:44.920Z,6.78
2023-10-06T06:15:47.641Z,6.50
2023-10-06T06:18:50.288Z,7.12
2023-10-06T06:21:55.161Z,5.78
2023-10-06T06:28:00.685Z,5.15
2023-10-06T06:31:06.461Z,5.05
2023-10-06T06:34:10.438Z,4.65
2023-10-06T06:37:14.366Z,5.20
2023-10-06T06:40:17.078Z,5.43
2023-10-06T06:43:21.448Z,5.47
2023-10-06T06:46:24.128Z,7.07
2023-10-06T06:49:28.107Z,7.90
2023-10-06T06:52:30.660Z,7.40
2023-10-06T06:55:33.665Z,6.30
2023-10-06T06:58:36.543Z,5.43
2023-10-06T07:01:40.355Z,4.93
2023-10-06T07:04:42.936Z,5.10
2023-10-06T07:07:46.408Z,4.85
2023-10-06T07:10:54.480Z,5.83
2023-10-06T07:14:01.353Z,6.00
2023-10-06T07:17:04.069Z,6.00
2023-10-06T07:20:10.590Z,6.62
2023-10-06T07:23:13.229Z,5.25
2023-10-06T07:26:15.909Z,6.18
2023-10-06T07:29:18.438Z,5.70
2023-10-06T07:32:23.260Z,4.57
2023-10-06T07:35:38.549Z,4.25
2023-10-06T07:38:42.576Z,4.60
2023-10-06T07:41:45.192Z,4.20
2023-10-06T07:44:48.936Z,4.62
2023-10-06T07:47:51.703Z,3.95
2023-10-06T07:50:55.338Z,4.10
2023-10-06T07:54:00.499Z,4.18
2023-10-06T08:00:08.593Z,4.22
2023-10-06T08:03:12.520Z,3.62
2023-10-06T08:06:15.610Z,4.22
2023-10-06T08:09:18.646Z,4.10
2023-10-06T08:12:21.183Z,4.10
2023-10-06T08:15:23.990Z,3.58
2023-10-06T08:18:29.495Z,3.85
2023-10-06T08:21:32.119Z,4.22
2023-10-06T08:24:34.649Z,3.20
2023-10-06T08:27:37.337Z,3.03
2023-10-06T08:30:40.044Z,2.95
2023-10-06T08:33:43.096Z,3.35
2023-10-06T08:36:46.048Z,2.83
2023-10-06T08:39:49.250Z,3.17
2023-10-06T08:42:55.443Z,3.03
2023-10-06T08:46:01.463Z,3.50
2023-10-06T08:49:04.370Z,3.55
2023-10-06T08:52:09.758Z,2.85
2023-10-06T08:55:16.167Z,3.00
2023-10-06T08:58:19.117Z,3.20
2023-10-06T09:01:22.301Z,3.00
2023-10-06T09:04:24.799Z,3.45
2023-10-06T09:07:27.419Z,3.22
2023-10-06T09:10:32.236Z,2.67
2023-10-06T09:13:35.140Z,2.72
2023-10-06T09:16:52.832Z,3.00
2023-10-06T09:19:56.054Z,2.75
2023-10-06T09:23:00.203Z,3.58
2023-10-06T09:26:03.476Z,2.70
2023-10-06T09:29:06.080Z,3.25
2023-10-06T09:32:22.283Z,3.12
2023-10-06T09:35:26.822Z,3.35
2023-10-06T09:38:30.302Z,2.70
2023-10-06T09:41:35.984Z,2.85
2023-10-06T09:44:38.505Z,3.55
2023-10-06T09:47:41.751Z,2.78
2023-10-06T09:50:47.609Z,2.92
2023-10-06T09:53:50.881Z,2.92
2023-10-06T09:56:56.954Z,3.00
2023-10-06T10:00:01.310Z,2.65
2023-10-06T10:03:06.462Z,3.42
2023-10-06T10:06:09.229Z,2.97
2023-10-06T10:09:18.809Z,2.78
2023-10-06T10:12:48.948Z,4.40
2023-10-06T10:16:40.691Z,2.80
2023-10-06T10:19:44.792Z,3.00
2023-10-06T10:22:47.343Z,3.03
2023-10-06T10:25:49.865Z,3.75
2023-10-06T10:29:14.381Z,3.35
2023-10-06T10:32:20.349Z,3.37
2023-10-06T10:35:23.130Z,3.65
2023-10-06T10:38:27.874Z,3.50
2023-10-06T10:41:32.294Z,4.35
2023-10-06T10:44:36.888Z,3.17
2023-10-06T10:47:39.518Z,3.53
2023-10-06T10:50:54.244Z,3.30
2023-10-06T10:53:56.843Z,3.30
2023-10-06T10:57:11.100Z,3.60
2023-10-06T11:00:14.612Z,3.10
2023-10-06T11:03:17.435Z,4.18
2023-10-06T11:06:20.027Z,5.47
2023-10-06T11:09:38.423Z,2.65
2023-10-06T11:12:41.355Z,2.83
2023-10-06T11:15:44.244Z,4.47
2023-10-06T11:18:47.033Z,4.18
2023-10-06T11:21:50.508Z,3.40
2023-10-06T11:24:54.047Z,3.70
2023-10-06T11:28:10.857Z,3.78
2023-10-06T11:31:14.034Z,3.25
2023-10-06T11:34:17.410Z,3.33
2023-10-06T11:37:25.570Z,3.85
2023-10-06T11:40:29.150Z,3.12
2023-10-06T11:43:32.231Z,3.45
2023-10-06T11:46:51.340Z,2.70
2023-10-06T11:49:56.824Z,2.65
2023-10-06T11:53:03.856Z,3.33
2023-10-06T11:56:11.563Z,2.90
2023-10-06T11:59:24.664Z,3.47
2023-10-06T12:02:27.303Z,3.10
2023-10-06T12:05:31.402Z,2.87
2023-10-06T12:08:34.011Z,2.75
2023-10-06T12:11:37.259Z,2.90
2023-10-06T12:14:46.818Z,2.50
2023-10-06T12:17:51.876Z,2.60
2023-10-06T12:20:55.018Z,2.53
2023-10-06T12:23:57.654Z,2.37
2023-10-06T12:27:00.277Z,2.58
2023-10-06T12:30:08.558Z,2.53
2023-10-06T12:33:12.263Z,2.60
2023-10-06T12:36:16.354Z,2.85
2023-10-06T12:39:32.196Z,2.90
2023-10-06T12:42:34.818Z,2.53
2023-10-06T12:45:38.019Z,2.67
2023-10-06T12:48:40.755Z,2.50
2023-10-06T12:51:43.294Z,2.47
2023-10-06T12:54:47.677Z,2.65
2023-10-06T12:57:50.843Z,2.60
2023-10-06T13:00:53.411Z,2.50
2023-10-06T13:03:56.120Z,2.72
2023-10-06T13:07:00.361Z,2.37
2023-10-06T13:10:07.575Z,3.47
2023-10-06T13:13:10.109Z,2.72
2023-10-06T13:16:12.671Z,2.47
2023-10-06T13:19:15.270Z,2.20
2023-10-06T13:22:17.933Z,2.30
2023-10-06T13:25:20.500Z,2.37
2023-10-06T13:28:23.109Z,2.12
2023-10-06T13:31:25.574Z,1.55
2023-10-06T13:34:28.409Z,2.50
2023-10-06T13:37:31.652Z,1.85
2023-10-06T13:40:35.647Z,2.92
2023-10-06T13:43:38.475Z,2.03
2023-10-06T13:46:41.789Z,2.05
2023-10-06T13:49:44.898Z,1.48
2023-10-06T13:52:53.312Z,1.80
2023-10-06T13:55:59.894Z,1.50
2023-10-06T13:59:05.243Z,1.70
2023-10-06T14:02:08.138Z,1.50
2023-10-06T14:05:13.162Z,2.30
2023-10-06T14:11:18.527Z,1.83
2023-10-06T14:14:44.462Z,1.70
2023-10-06T14:17:48.502Z,2.08
2023-10-06T14:20:51.341Z,1.80
2023-10-06T14:23:56.226Z,1.95
2023-10-06T14:27:00.142Z,1.95
2023-10-06T14:30:05.248Z,1.95
2023-10-06T14:33:16.029Z,1.58
2023-10-06T14:36:21.400Z,1.33
2023-10-06T14:39:42.618Z,1.20
2023-10-06T14:43:03.619Z,1.30
2023-10-06T14:46:08.622Z,1.30
2023-10-06T14:52:20.866Z,1.17
2023-10-06T14:55:23.411Z,1.33
2023-10-06T14:58:26.253Z,1.35
2023-10-06T15:01:31.969Z,1.30
2023-10-06T15:04:35.835Z,1.45
2023-10-06T15:07:40.117Z,1.62
2023-10-06T15:10:43.104Z,1.80
2023-10-06T15:13:48.346Z,1.85
2023-10-06T15:16:51.013Z,1.55
2023-10-06T15:19:54.369Z,1.67
2023-10-06T15:22:57.108Z,1.50
2023-10-06T15:26:03.897Z,1.60
2023-10-06T15:29:09.013Z,2.12
2023-10-06T15:32:13.283Z,2.22
2023-10-06T15:35:16.173Z,1.87
2023-10-06T15:38:21.309Z,2.65
2023-10-06T15:44:28.828Z,2.22
